Etusivu
METAR-TAF:

METAR-TAF

Lentoasemat :

Tanger, Marokko

Leveyspiiri: 35-44N, Pituuspiiri: 005-54W, korkeus merenpinnasta: 19 m

Tämänhetkinen sää

Tämä raportti tehtiin 55 minuuttia sitten, kello 07.30 UTC
Tuuli 6 kn lounaasta, vaihdellen etelän ja lännen/lounaan välillä
Lämpötila 18°C
Kosteus 83%
Ilmanpaine 1014 hPa
Näkyvyys 10 km tai enemmän
Muutamia pilviä 1100 ft:n korkeudessa
Hajanaisia pilviä 1600 ft:n korkeudessa

METAR: GMTT 200730Z 23006KT 190V250 9999 FEW011 SCT016 18/15 Q1014 NOSIG

Aika: 08:25 (08:25 UTC)

Sääennuste

Tämä raportti tehtiin 3 tuntia ja 25 minuuttia sitten, kello 05.00 UTC
Ennuste voimassa 20. päivästä klo 06 UTC - 21. päivään klo 12 UTC
Tuuli 4 kn etelästä/lounaasta
Näkyvyys 10 km tai enemmän
Hajanaisia pilviä 1600 ft:n korkeudessa
Hajanaisia pilviä 2300 ft:n korkeudessa
Ajoittain
20. päivästä klo 09 UTC - 20. päivään klo 21 UTC
Tuuli 14 kn lännestä

TAF: GMTT 200500Z 2006/2112 20004KT 9999 SCT016 SCT023 TEMPO 2009/2021 26014KT

Säähavainnot ja -ennusteet yli 4000 lentoasemalta (METAR- ja TAF-raportit).

Käytössä olevat sääasemat on merkitty karttaan keltaisilla ja punaisilla pisteillä.

Aseta hiiri pisteen päälle nähdäksesi sääaseman nimen.

Klikkaa sitten nähdäksesi säähavainnot ja -ennusteet.

Kartan vaihtaminen: klikkaa mustalla rastilla varustettuja vihreitä pisteitä, niin voit zoomata sisään; viivalla varustettua vihreää pistettä, niin voit zoomata ulos tai vihreitä nuolia, niin pääset viereisille kartoille.


METAR-TAF: